MET'MAP v2.0
soon released !

Expected late october,
this new version will be
more efficient, smarter,
and hosted on a brand new
server x3 powerfull...
...and still free !


Not compatible ?
Try the mobile version !

LOG IN : | Subscribe | Disclaimer | Who is Orbifly ? |
ICAO code :
Legend : VFR Marginal VFR IFR Intensive IFR Very Intensive IFR
Visi :
Ceiling :
>= 8 km
>= 3000ft
5 to 8 km
1000 to 3000 ft
1500m to 5 km
500 to 1000 ft
800 to 1500m
200 to 500 ft
< 800m
< 200 ft

METAR - EPWA Warsaw Okecie - 05 Jun 2020 06:19 UTC - Data Source NOAA   


- Airport Elevation : 362 ft
- IATA code : WAW
- No reported NOTAMs.


EPWA - Warsaw Okecie

Latest METAR recorded : 2015/08/11 08:00 EPWA 110800Z VRB02KT CAVOK 28/16 Q1016 NOSIG
TAF TAF EPWA
Valid from the 05 at 03:00 until the 06 at 03:00 UTC


050230Z 0503/0603 11010KT CAVOK
BECMG 0507/0510 18012KT
TEMPO 0511/0519 -SHRA BKN025CB
PROB40
TEMPO 0512/0518 3000 TSRA SCT007 BKN012CB
BECMG 0515/0518 27007KT
BECMG 0521/0524 18010KT

Source NOAA


MET'MAP, your aeronautical weather chart ! - Copyright ORBIFLY December 2007

Programming & Development : Alexandra Zaïnal
Co-Developer : Marc-Olivier Méhu
Technical & hardware support : Manuel Goepfert
Concept & Financing : Baudouin d'Aumeries